Prabhu Sakhawat — AVES — position and weather

sailwx.info

Track history (hours):
 
Tides and Currents Weather Stations Pressure Air Temp Water Temp Dewpoint Dewpoint Depression Visibility Wind Speed Wind Dir Waves Ship Positions

Prabhu Sakhawat

Last reported at 2018-Feb-13 19:08 UTC. Time now 2018-Feb-24 16:37 UTC.
Position N 41°37' E 141°47'.
Warning: this ship's position is 10 days out of date.

Length 225 m; draft 7.7 m.

Type: Cargo ship. MMSI: 419099500.

Date/timePositionNaut miles runAvg speedWind from/ knotsBaromVisibWave heightAir tempDewpointWater temp
2018-Feb-13 19:08N 41°37' E 141°47'214.3
2018-Feb-13 19:00N 41°37' E 141°44'714.6
2018-Feb-13 18:30N 41°37' E 141°34'816.1
2018-Feb-13 18:00N 41°36' E 141°24'714.9
2018-Feb-13 17:30N 41°36' E 141°14'816.1
2018-Feb-13 17:00N 41°37' E 141°03'917.4
2018-Feb-13 16:30N 41°37' E 140°51'816.0
2018-Feb-13 16:00N 41°32' E 140°43'815.5
2018-Feb-13 15:30N 41°28' E 140°34'815.0
2018-Feb-13 15:00N 41°24' E 140°25'916.9
2018-Feb-13 14:30N 41°20' E 140°15'  
Track history (hours):
 
Tides and Currents Weather Stations Pressure Air Temp Water Temp Dewpoint Dewpoint Depression Visibility Wind Speed Wind Dir Waves Ship Positions

Prabhu Sakhawat

Last reported at 2018-Feb-13 19:08 UTC. Time now 2018-Feb-24 16:37 UTC.
Position N 41°37' E 141°47'.
Warning: this ship's position is 10 days out of date.

Length 225 m; draft 7.7 m.

Type: Cargo ship. MMSI: 419099500.

Date/timePositionNaut miles runAvg speedWind from/ knotsBaromVisibWave heightAir tempDewpointWater temp
2018-Feb-13 19:08N 41°37' E 141°47'214.3
2018-Feb-13 19:00N 41°37' E 141°44'714.6
2018-Feb-13 18:30N 41°37' E 141°34'816.1
2018-Feb-13 18:00N 41°36' E 141°24'714.9
2018-Feb-13 17:30N 41°36' E 141°14'816.1
2018-Feb-13 17:00N 41°37' E 141°03'917.4
2018-Feb-13 16:30N 41°37' E 140°51'816.0
2018-Feb-13 16:00N 41°32' E 140°43'815.5
2018-Feb-13 15:30N 41°28' E 140°34'815.0
2018-Feb-13 15:00N 41°24' E 140°25'916.9
2018-Feb-13 14:30N 41°20' E 140°15'  

Dump ship's entire track history